createdAt,value
2019-05-30T00:01:58.584Z,58.12
2019-05-30T00:04:25.986Z,58.15
2019-05-30T00:06:54.450Z,57.50
2019-05-30T00:09:23.509Z,57.62
2019-05-30T00:11:51.842Z,57.83
2019-05-30T00:14:20.318Z,57.06
2019-05-30T00:16:47.915Z,57.30
2019-05-30T00:19:15.363Z,57.30
2019-05-30T00:21:43.212Z,57.20
2019-05-30T00:24:10.923Z,57.26
2019-05-30T00:26:39.050Z,56.79
2019-05-30T00:29:06.731Z,57.08
2019-05-30T00:31:34.843Z,57.02
2019-05-30T00:34:05.958Z,57.01
2019-05-30T00:36:33.582Z,56.92
2019-05-30T00:39:01.885Z,56.69
2019-05-30T00:41:29.830Z,56.37
2019-05-30T00:43:57.882Z,56.00
2019-05-30T00:46:25.802Z,56.79
2019-05-30T00:48:53.193Z,56.17
2019-05-30T00:51:20.987Z,55.72
2019-05-30T00:53:48.251Z,55.08
2019-05-30T00:56:15.671Z,55.33
2019-05-30T00:58:43.127Z,57.14
2019-05-30T01:01:11.254Z,56.05
2019-05-30T01:03:38.683Z,55.99
2019-05-30T01:06:07.234Z,55.42
2019-05-30T01:08:34.984Z,56.75
2019-05-30T01:11:03.184Z,56.05
2019-05-30T01:13:30.667Z,55.82
2019-05-30T01:15:58.958Z,56.15
2019-05-30T01:18:27.619Z,56.98
2019-05-30T01:20:55.556Z,56.12
2019-05-30T01:23:23.057Z,55.58
2019-05-30T01:25:50.507Z,55.81
2019-05-30T01:28:17.766Z,55.65
2019-05-30T01:30:59.148Z,55.44
2019-05-30T01:33:15.035Z,55.99
2019-05-30T01:35:43.564Z,55.65
2019-05-30T01:38:10.891Z,56.28
2019-05-30T01:40:38.770Z,55.95
2019-05-30T01:43:06.283Z,56.31
2019-05-30T01:45:34.909Z,55.43
2019-05-30T01:48:02.898Z,56.62
2019-05-30T01:50:31.456Z,56.06
2019-05-30T01:53:00.318Z,56.67
2019-05-30T01:55:27.999Z,56.44
2019-05-30T01:57:55.360Z,56.74
2019-05-30T02:00:33.422Z,56.57
2019-05-30T02:03:00.816Z,56.08
2019-05-30T02:05:28.216Z,56.81
2019-05-30T02:07:56.043Z,56.64
2019-05-30T02:10:23.704Z,57.04
2019-05-30T02:12:51.067Z,57.09
2019-05-30T02:15:18.932Z,57.86
2019-05-30T02:17:46.803Z,56.93
2019-05-30T02:20:14.663Z,57.39
2019-05-30T02:22:42.327Z,57.22
2019-05-30T02:25:11.831Z,57.61
2019-05-30T02:27:39.833Z,57.78
2019-05-30T02:30:12.622Z,57.98
2019-05-30T02:32:38.293Z,58.19
2019-05-30T02:35:07.807Z,58.65
2019-05-30T02:37:35.987Z,58.89
2019-05-30T02:40:07.382Z,58.41
2019-05-30T02:42:33.661Z,59.41
2019-05-30T02:45:02.021Z,58.90
2019-05-30T02:47:30.521Z,59.25
2019-05-30T02:50:01.309Z,59.28
2019-05-30T02:52:29.023Z,59.50
2019-05-30T02:54:56.383Z,60.04
2019-05-30T02:57:24.047Z,59.47
2019-05-30T02:59:52.009Z,59.52
2019-05-30T03:02:19.462Z,59.22
2019-05-30T03:04:46.926Z,59.84
2019-05-30T03:07:14.491Z,59.35
2019-05-30T03:09:42.384Z,60.18
2019-05-30T03:12:11.473Z,59.35
2019-05-30T03:14:39.152Z,59.57
2019-05-30T03:17:09.131Z,59.88
2019-05-30T03:19:36.081Z,59.47
2019-05-30T03:22:05.200Z,59.98
2019-05-30T03:24:32.828Z,59.86
2019-05-30T03:27:00.285Z,60.12
2019-05-30T03:29:28.263Z,60.21
2019-05-30T03:31:55.945Z,60.56
2019-05-30T03:34:28.589Z,59.41
2019-05-30T03:36:52.672Z,59.98
2019-05-30T03:39:21.048Z,59.31
2019-05-30T03:41:48.605Z,59.72
2019-05-30T03:44:16.116Z,59.47
2019-05-30T03:46:48.648Z,60.08
2019-05-30T03:49:21.793Z,60.20
2019-05-30T03:51:51.085Z,60.81
2019-05-30T03:54:19.038Z,60.69
2019-05-30T03:56:51.280Z,60.69
2019-05-30T03:59:24.687Z,60.26
2019-05-30T04:02:11.792Z,60.26
2019-05-30T04:04:46.729Z,60.85
2019-05-30T04:07:19.622Z,60.07
2019-05-30T04:09:49.531Z,60.40
2019-05-30T04:12:27.941Z,60.30
2019-05-30T04:15:00.295Z,60.29
2019-05-30T04:17:28.700Z,60.89
2019-05-30T04:19:56.253Z,60.11
2019-05-30T04:22:23.613Z,59.56
2019-05-30T04:24:51.353Z,58.83
2019-05-30T04:27:18.872Z,59.98
2019-05-30T04:29:46.189Z,59.87
2019-05-30T04:32:14.399Z,59.66
2019-05-30T04:34:42.438Z,58.63
2019-05-30T04:37:10.641Z,60.13
2019-05-30T04:39:38.372Z,60.98
2019-05-30T04:42:05.830Z,60.44
2019-05-30T04:44:33.622Z,59.46
2019-05-30T04:47:00.957Z,59.54
2019-05-30T04:49:28.306Z,59.95
2019-05-30T04:51:55.881Z,60.63
2019-05-30T04:54:23.803Z,60.43
2019-05-30T04:56:51.248Z,59.60
2019-05-30T04:59:19.847Z,60.28
2019-05-30T05:01:47.841Z,59.96
2019-05-30T05:04:17.554Z,60.21
2019-05-30T05:06:44.984Z,59.88
2019-05-30T05:09:14.010Z,59.52
2019-05-30T05:11:41.971Z,60.52
2019-05-30T05:14:09.809Z,60.44
2019-05-30T05:16:37.301Z,60.88
2019-05-30T05:19:04.863Z,61.23
2019-05-30T05:21:33.437Z,63.07
2019-05-30T05:24:01.310Z,62.31
2019-05-30T05:26:29.069Z,63.45
2019-05-30T05:28:56.745Z,63.35
2019-05-30T05:31:26.253Z,63.50
2019-05-30T05:33:57.323Z,62.35
2019-05-30T05:36:25.252Z,61.66
2019-05-30T05:38:52.723Z,61.58
2019-05-30T05:41:20.265Z,61.54
2019-05-30T05:43:48.361Z,61.46
2019-05-30T05:46:16.417Z,60.96
2019-05-30T05:48:44.077Z,60.79
2019-05-30T05:51:11.653Z,59.91
2019-05-30T05:53:39.517Z,60.55
2019-05-30T05:56:06.980Z,60.41
2019-05-30T05:58:34.338Z,61.07
2019-05-30T06:01:01.787Z,60.47
2019-05-30T06:03:29.141Z,59.25
2019-05-30T06:05:56.599Z,59.85
2019-05-30T06:08:24.069Z,59.87
2019-05-30T06:10:52.133Z,59.80
2019-05-30T06:13:20.769Z,60.25
2019-05-30T06:15:48.269Z,60.59
2019-05-30T06:18:15.830Z,60.41
2019-05-30T06:20:43.774Z,60.01
2019-05-30T06:23:11.152Z,60.68
2019-05-30T06:25:38.606Z,60.90
2019-05-30T06:28:06.069Z,61.02
2019-05-30T06:30:36.811Z,61.21
2019-05-30T06:33:04.875Z,61.00
2019-05-30T06:35:32.235Z,61.27
2019-05-30T06:37:59.646Z,60.14
2019-05-30T06:40:30.933Z,60.39
2019-05-30T06:42:59.107Z,59.99
2019-05-30T06:45:26.849Z,59.31
2019-05-30T06:47:54.333Z,60.03
2019-05-30T06:50:22.581Z,60.85
2019-05-30T06:52:50.163Z,63.13
2019-05-30T06:55:18.382Z,62.45
2019-05-30T06:57:45.770Z,66.05
2019-05-30T07:00:14.314Z,67.86
2019-05-30T07:02:41.676Z,66.97
2019-05-30T07:05:10.731Z,68.87
2019-05-30T07:07:40.672Z,68.62
2019-05-30T07:10:09.227Z,68.34
2019-05-30T07:12:36.590Z,68.07
2019-05-30T07:15:05.566Z,65.96
2019-05-30T07:17:33.635Z,66.46
2019-05-30T07:20:01.511Z,65.65
2019-05-30T07:22:29.733Z,65.40
2019-05-30T07:24:57.150Z,64.21
2019-05-30T07:27:26.100Z,65.37
2019-05-30T07:29:53.813Z,64.27
2019-05-30T07:32:21.175Z,64.30
2019-05-30T07:34:48.623Z,64.89
2019-05-30T07:37:17.234Z,63.44
2019-05-30T07:39:45.007Z,63.01
2019-05-30T07:42:12.426Z,62.28
2019-05-30T07:44:40.088Z,63.02
2019-05-30T07:47:07.559Z,63.01
2019-05-30T07:49:36.130Z,63.33
2019-05-30T07:52:04.206Z,63.12
2019-05-30T07:54:31.536Z,63.28
2019-05-30T07:56:58.931Z,61.85
2019-05-30T07:59:26.470Z,62.77
2019-05-30T08:01:54.447Z,62.40
2019-05-30T08:04:22.502Z,61.93
2019-05-30T08:06:56.523Z,61.71
2019-05-30T08:09:24.158Z,62.31
2019-05-30T08:11:52.092Z,62.14
2019-05-30T08:14:19.417Z,61.74
2019-05-30T08:16:46.699Z,60.68
2019-05-30T08:19:14.650Z,60.23
2019-05-30T08:21:41.982Z,59.98
2019-05-30T08:24:09.415Z,59.45
2019-05-30T08:26:36.766Z,59.56
2019-05-30T08:29:04.264Z,60.71
2019-05-30T08:31:32.488Z,60.25
2019-05-30T08:33:59.991Z,58.80
2019-05-30T08:36:30.875Z,60.46
2019-05-30T08:38:58.398Z,60.76
2019-05-30T08:41:25.854Z,60.11
2019-05-30T08:43:53.208Z,60.61
2019-05-30T08:46:21.574Z,59.10
2019-05-30T08:48:49.855Z,59.46
2019-05-30T08:51:17.703Z,60.17
2019-05-30T08:53:45.297Z,59.31
2019-05-30T08:56:12.875Z,60.06
2019-05-30T08:58:40.937Z,60.40
2019-05-30T09:01:08.786Z,60.81
2019-05-30T09:03:36.144Z,61.29
2019-05-30T09:06:04.549Z,60.77
2019-05-30T09:08:32.135Z,60.90
2019-05-30T09:11:02.513Z,61.64
2019-05-30T09:13:29.939Z,61.32
2019-05-30T09:15:57.376Z,60.05
2019-05-30T09:18:24.671Z,59.56
2019-05-30T09:20:52.176Z,60.67
2019-05-30T09:23:19.593Z,61.31
2019-05-30T09:25:49.416Z,60.32
2019-05-30T09:28:16.828Z,61.21
2019-05-30T09:30:44.804Z,60.37
2019-05-30T09:33:14.331Z,60.66
2019-05-30T09:35:42.933Z,60.74
2019-05-30T09:38:12.020Z,61.06
2019-05-30T09:40:40.836Z,61.44
2019-05-30T09:43:08.880Z,60.11
2019-05-30T09:45:36.332Z,60.86
2019-05-30T09:48:03.916Z,61.07
2019-05-30T09:50:31.247Z,61.44
2019-05-30T09:52:58.904Z,61.56
2019-05-30T09:55:27.926Z,62.23
2019-05-30T09:57:55.437Z,62.35
2019-05-30T10:00:23.329Z,63.19
2019-05-30T10:02:52.492Z,63.79
2019-05-30T10:05:30.034Z,64.15
2019-05-30T10:07:59.800Z,63.44
2019-05-30T10:10:35.725Z,63.72
2019-05-30T10:13:04.368Z,62.27
2019-05-30T10:15:31.748Z,61.50
2019-05-30T10:17:59.285Z,61.68
2019-05-30T10:20:30.499Z,61.98
2019-05-30T10:22:57.895Z,62.06
2019-05-30T10:25:25.561Z,61.78
2019-05-30T10:27:54.645Z,59.37
2019-05-30T10:30:23.712Z,59.54
2019-05-30T10:32:52.006Z,59.21
2019-05-30T10:35:20.180Z,60.25
2019-05-30T10:37:48.911Z,59.22
2019-05-30T10:40:17.269Z,59.20
2019-05-30T10:42:47.300Z,58.98
2019-05-30T10:45:15.920Z,59.22
2019-05-30T10:47:47.535Z,59.61
2019-05-30T10:50:17.173Z,59.94
2019-05-30T10:52:49.441Z,61.84
2019-05-30T10:55:19.520Z,60.74
2019-05-30T10:57:50.053Z,60.08
2019-05-30T11:00:20.596Z,61.05
2019-05-30T11:02:49.968Z,62.21
2019-05-30T11:05:22.754Z,61.90
2019-05-30T11:08:06.312Z,62.35
2019-05-30T11:10:39.484Z,63.04
2019-05-30T11:13:11.834Z,62.55
2019-05-30T11:15:39.918Z,62.39
2019-05-30T11:18:07.473Z,61.30
2019-05-30T11:20:37.015Z,61.03
2019-05-30T11:23:04.649Z,60.52
2019-05-30T11:25:35.165Z,61.96
2019-05-30T11:28:05.681Z,61.73
2019-05-30T11:30:36.938Z,61.23
2019-05-30T11:33:11.428Z,60.30
2019-05-30T11:35:39.524Z,61.93
2019-05-30T11:38:08.473Z,60.94
2019-05-30T11:40:39.783Z,61.37
2019-05-30T11:43:11.443Z,61.55
2019-05-30T11:45:40.816Z,62.85
2019-05-30T11:48:08.838Z,63.50
2019-05-30T11:50:38.495Z,62.70
2019-05-30T11:53:08.030Z,63.92
2019-05-30T11:55:37.543Z,63.57
2019-05-30T11:58:04.887Z,63.05
2019-05-30T12:00:33.138Z,63.94
2019-05-30T12:03:00.710Z,63.42
2019-05-30T12:05:34.029Z,63.60
2019-05-30T12:08:01.477Z,64.19
2019-05-30T12:10:30.243Z,63.70
2019-05-30T12:12:57.753Z,64.21
2019-05-30T12:15:26.171Z,64.14
2019-05-30T12:17:53.857Z,63.51
2019-05-30T12:20:21.504Z,63.44
2019-05-30T12:22:51.734Z,63.23
2019-05-30T12:25:19.616Z,62.19
2019-05-30T12:27:46.982Z,61.83
2019-05-30T12:30:15.145Z,62.05
2019-05-30T12:32:43.162Z,61.96
2019-05-30T12:35:13.960Z,60.71
2019-05-30T12:37:54.229Z,61.48
2019-05-30T12:40:11.708Z,60.77
2019-05-30T12:42:39.529Z,60.70
2019-05-30T12:45:07.638Z,60.43
2019-05-30T12:47:36.118Z,61.88
2019-05-30T12:50:04.603Z,63.06
2019-05-30T12:52:46.550Z,62.95
2019-05-30T12:55:14.964Z,63.68
2019-05-30T12:57:42.515Z,63.65
2019-05-30T13:00:17.509Z,63.08
2019-05-30T13:02:43.089Z,63.34
2019-05-30T13:05:10.670Z,63.25
2019-05-30T13:07:38.276Z,62.47
2019-05-30T13:10:06.009Z,62.42
2019-05-30T13:12:33.454Z,62.39
2019-05-30T13:15:01.940Z,63.55
2019-05-30T13:17:29.531Z,63.00
2019-05-30T13:19:57.051Z,62.29
2019-05-30T13:22:24.487Z,63.27
2019-05-30T13:24:53.405Z,62.96
2019-05-30T13:27:20.714Z,62.75
2019-05-30T13:29:48.186Z,64.43
2019-05-30T13:32:15.537Z,63.27
2019-05-30T13:34:43.007Z,63.14
2019-05-30T13:37:10.411Z,63.08
2019-05-30T13:39:37.706Z,62.42
2019-05-30T13:42:05.964Z,64.19
2019-05-30T13:44:34.022Z,65.38
2019-05-30T13:47:02.436Z,64.92
2019-05-30T13:49:30.534Z,65.04
2019-05-30T13:51:58.934Z,66.08
2019-05-30T13:54:27.770Z,65.62
2019-05-30T13:56:55.643Z,65.03
2019-05-30T13:59:23.103Z,65.03
2019-05-30T14:01:50.460Z,64.76
2019-05-30T14:04:17.885Z,64.54
2019-05-30T14:06:45.783Z,64.78
2019-05-30T14:09:13.546Z,65.13
2019-05-30T14:11:40.927Z,65.58
2019-05-30T14:14:08.923Z,65.85
2019-05-30T14:16:36.835Z,65.52
2019-05-30T14:19:05.354Z,65.20
2019-05-30T14:21:32.850Z,64.95
2019-05-30T14:24:05.340Z,65.54
2019-05-30T14:26:33.307Z,64.87
2019-05-30T14:29:02.219Z,66.44
2019-05-30T14:31:30.323Z,65.49
2019-05-30T14:33:57.647Z,65.64
2019-05-30T14:36:25.719Z,65.75
2019-05-30T14:38:58.428Z,66.79
2019-05-30T14:41:22.679Z,65.82
2019-05-30T14:43:51.549Z,65.66
2019-05-30T14:46:20.552Z,65.71
2019-05-30T14:48:49.931Z,66.22
2019-05-30T14:51:19.051Z,67.05
2019-05-30T14:53:49.375Z,66.98
2019-05-30T14:56:17.763Z,67.28
2019-05-30T14:58:46.634Z,66.57
2019-05-30T15:01:14.599Z,65.71
2019-05-30T15:03:45.887Z,66.32
2019-05-30T15:06:16.282Z,66.33
2019-05-30T15:08:43.371Z,66.49
2019-05-30T15:11:11.748Z,67.63
2019-05-30T15:13:39.124Z,67.08
2019-05-30T15:16:06.807Z,66.75
2019-05-30T15:18:36.800Z,67.17
2019-05-30T15:21:04.190Z,67.48
2019-05-30T15:23:31.614Z,68.25
2019-05-30T15:25:59.080Z,67.60
2019-05-30T15:28:26.738Z,66.88
2019-05-30T15:30:56.026Z,66.88
2019-05-30T15:33:23.904Z,66.71
2019-05-30T15:36:10.968Z,66.43
2019-05-30T15:38:38.684Z,66.33
2019-05-30T15:41:06.998Z,66.46
2019-05-30T15:43:42.359Z,66.48
2019-05-30T15:46:10.035Z,67.78
2019-05-30T15:48:38.783Z,67.77
2019-05-30T15:51:10.460Z,66.70
2019-05-30T15:53:40.643Z,66.61
2019-05-30T15:56:13.503Z,66.71
2019-05-30T15:58:41.123Z,66.72
2019-05-30T16:01:09.832Z,66.40
2019-05-30T16:03:37.671Z,66.57
2019-05-30T16:06:07.500Z,67.51
2019-05-30T16:08:35.135Z,67.58
2019-05-30T16:11:03.017Z,67.44
2019-05-30T16:13:32.351Z,66.75
2019-05-30T16:15:59.875Z,66.40
2019-05-30T16:18:27.401Z,66.87
2019-05-30T16:20:55.237Z,68.10
2019-05-30T16:23:22.557Z,68.20
2019-05-30T16:25:49.985Z,67.94
2019-05-30T16:28:17.878Z,68.27
2019-05-30T16:30:46.360Z,69.34
2019-05-30T16:33:13.999Z,67.13
2019-05-30T16:35:42.515Z,65.91
2019-05-30T16:38:10.060Z,65.13
2019-05-30T16:40:38.439Z,65.10
2019-05-30T16:43:06.832Z,64.79
2019-05-30T16:45:34.168Z,64.88
2019-05-30T16:48:03.980Z,66.86
2019-05-30T16:50:31.446Z,65.96
2019-05-30T16:53:10.469Z,65.58
2019-05-30T16:55:37.926Z,65.58
2019-05-30T16:58:05.487Z,65.42
2019-05-30T17:00:33.297Z,63.98
2019-05-30T17:03:01.222Z,66.61
2019-05-30T17:05:28.539Z,65.82
2019-05-30T17:07:56.004Z,65.51
2019-05-30T17:10:32.207Z,65.82
2019-05-30T17:12:53.023Z,65.94
2019-05-30T17:15:20.459Z,67.38
2019-05-30T17:17:47.882Z,66.76
2019-05-30T17:20:16.441Z,65.76
2019-05-30T17:22:44.577Z,65.07
2019-05-30T17:25:12.347Z,66.12
2019-05-30T17:27:39.687Z,66.50
2019-05-30T17:30:09.914Z,65.81
2019-05-30T17:32:37.371Z,65.54
2019-05-30T17:35:05.239Z,66.19
2019-05-30T17:37:35.085Z,67.18
2019-05-30T17:40:04.797Z,68.19
2019-05-30T17:42:32.217Z,68.02
2019-05-30T17:44:59.763Z,68.06
2019-05-30T17:47:27.748Z,67.46
2019-05-30T17:49:55.203Z,68.21
2019-05-30T17:52:23.689Z,68.05
2019-05-30T17:54:51.358Z,69.21
2019-05-30T17:57:22.052Z,68.67
2019-05-30T17:59:49.438Z,68.46
2019-05-30T18:02:17.105Z,68.83
2019-05-30T18:04:44.556Z,69.27
2019-05-30T18:07:12.583Z,69.10
2019-05-30T18:09:39.990Z,69.49
2019-05-30T18:12:07.982Z,70.71
2019-05-30T18:14:35.410Z,70.20
2019-05-30T18:17:03.289Z,69.96
2019-05-30T18:19:31.508Z,70.63
2019-05-30T18:21:59.026Z,71.72
2019-05-30T18:24:29.642Z,71.16
2019-05-30T18:26:57.199Z,70.87
2019-05-30T18:29:26.073Z,70.53
2019-05-30T18:31:53.782Z,71.00
2019-05-30T18:34:22.321Z,71.14
2019-05-30T18:36:49.956Z,70.94
2019-05-30T18:39:17.371Z,70.85
2019-05-30T18:41:44.825Z,69.92
2019-05-30T18:44:12.893Z,70.61
2019-05-30T18:46:40.349Z,70.81
2019-05-30T18:49:07.811Z,70.69
2019-05-30T18:51:36.735Z,72.12
2019-05-30T18:54:04.845Z,72.35
2019-05-30T18:56:32.823Z,71.90
2019-05-30T18:59:00.481Z,72.82
2019-05-30T19:01:29.542Z,73.37
2019-05-30T19:03:58.413Z,74.19
2019-05-30T19:06:28.115Z,73.08
2019-05-30T19:08:57.466Z,73.81
2019-05-30T19:11:29.580Z,74.49
2019-05-30T19:13:57.335Z,74.45
2019-05-30T19:16:26.307Z,73.52
2019-05-30T19:18:55.111Z,73.28
2019-05-30T19:21:23.297Z,73.68
2019-05-30T19:23:53.161Z,73.77
2019-05-30T19:26:21.747Z,74.12
2019-05-30T19:28:49.610Z,74.48
2019-05-30T19:31:17.113Z,74.48
2019-05-30T19:33:46.117Z,73.82
2019-05-30T19:36:13.576Z,74.19
2019-05-30T19:38:41.414Z,74.38
2019-05-30T19:41:09.012Z,75.39
2019-05-30T19:43:38.056Z,75.50
2019-05-30T19:46:05.849Z,75.56
2019-05-30T19:48:34.394Z,75.94
2019-05-30T19:51:02.505Z,76.13
2019-05-30T19:53:30.779Z,76.18
2019-05-30T19:56:07.053Z,76.32
2019-05-30T19:58:35.621Z,76.79
2019-05-30T20:01:05.593Z,76.31
2019-05-30T20:03:41.418Z,76.95
2019-05-30T20:06:04.009Z,76.85
2019-05-30T20:08:47.921Z,77.16
2019-05-30T20:11:01.561Z,77.65
2019-05-30T20:13:28.989Z,77.31
2019-05-30T20:15:56.447Z,78.13
2019-05-30T20:18:23.790Z,78.53
2019-05-30T20:20:57.630Z,77.62
2019-05-30T20:23:20.361Z,77.65
2019-05-30T20:25:47.772Z,77.71
2019-05-30T20:28:15.289Z,78.60
2019-05-30T20:30:43.437Z,78.50
2019-05-30T20:33:10.887Z,78.12
2019-05-30T20:35:40.061Z,78.13
2019-05-30T20:38:07.954Z,78.00
2019-05-30T20:40:38.525Z,77.64
2019-05-30T20:43:06.303Z,77.86
2019-05-30T20:45:37.967Z,78.11
2019-05-30T20:48:03.453Z,78.39
2019-05-30T20:50:31.396Z,78.36
2019-05-30T20:52:58.838Z,78.40
2019-05-30T20:55:26.602Z,78.67
2019-05-30T20:57:54.144Z,78.98
2019-05-30T21:00:25.962Z,78.37
2019-05-30T21:02:53.852Z,78.84
2019-05-30T21:05:21.470Z,79.08
2019-05-30T21:07:50.954Z,78.13
2019-05-30T21:10:19.482Z,78.48
2019-05-30T21:12:49.727Z,78.05
2019-05-30T21:15:18.118Z,78.47
2019-05-30T21:17:46.227Z,77.93
2019-05-30T21:20:14.298Z,78.03
2019-05-30T21:22:42.303Z,77.75
2019-05-30T21:25:10.944Z,78.18
2019-05-30T21:27:39.006Z,77.86
2019-05-30T21:30:07.551Z,77.66
2019-05-30T21:32:35.246Z,78.32
2019-05-30T21:35:04.305Z,77.64
2019-05-30T21:37:31.810Z,77.18
2019-05-30T21:39:59.174Z,77.34
2019-05-30T21:42:26.727Z,76.77
2019-05-30T21:44:54.559Z,76.54
2019-05-30T21:47:22.268Z,77.12
2019-05-30T21:49:49.714Z,76.43
2019-05-30T21:52:17.686Z,77.36
2019-05-30T21:54:46.270Z,77.54
2019-05-30T21:57:13.858Z,76.77
2019-05-30T21:59:44.322Z,76.94
2019-05-30T22:02:12.328Z,77.19
2019-05-30T22:04:40.463Z,76.63
2019-05-30T22:07:08.058Z,76.57
2019-05-30T22:09:35.895Z,76.94
2019-05-30T22:12:03.870Z,76.93
2019-05-30T22:14:31.356Z,77.63
2019-05-30T22:16:58.809Z,77.06
2019-05-30T22:19:26.262Z,77.86
2019-05-30T22:21:56.587Z,77.03
2019-05-30T22:24:23.944Z,77.83
2019-05-30T22:26:52.550Z,77.41
2019-05-30T22:29:20.193Z,77.46
2019-05-30T22:31:48.607Z,77.46
2019-05-30T22:34:16.232Z,76.66
2019-05-30T22:36:46.693Z,77.09
2019-05-30T22:39:15.443Z,76.77
2019-05-30T22:41:43.819Z,77.59
2019-05-30T22:44:11.382Z,76.72
2019-05-30T22:46:39.555Z,76.93
2019-05-30T22:49:06.912Z,76.25
2019-05-30T22:51:34.777Z,77.30
2019-05-30T22:54:02.239Z,76.93
2019-05-30T22:56:29.663Z,76.77
2019-05-30T22:58:57.056Z,76.66
2019-05-30T23:01:25.323Z,75.88
2019-05-30T23:03:53.854Z,75.61
2019-05-30T23:06:23.310Z,75.82
2019-05-30T23:08:50.771Z,76.02
2019-05-30T23:11:18.635Z,77.04
2019-05-30T23:13:45.901Z,76.32
2019-05-30T23:16:13.248Z,75.72
2019-05-30T23:18:40.497Z,77.08
2019-05-30T23:21:08.563Z,77.73
2019-05-30T23:23:36.231Z,76.87
2019-05-30T23:26:03.691Z,77.17
2019-05-30T23:28:31.144Z,76.05
2019-05-30T23:30:59.008Z,76.89
2019-05-30T23:33:26.675Z,76.52
2019-05-30T23:35:54.580Z,77.08
2019-05-30T23:38:21.999Z,76.91
2019-05-30T23:40:50.981Z,76.00
2019-05-30T23:43:19.574Z,76.73
2019-05-30T23:45:46.927Z,76.71
2019-05-30T23:48:14.695Z,77.05
2019-05-30T23:50:42.473Z,77.13
2019-05-30T23:53:10.112Z,76.79
2019-05-30T23:55:37.476Z,76.64
2019-05-30T23:58:04.795Z,77.47
